createdAt,value
2022-10-28T00:02:21.889Z,86.13
2022-10-28T00:04:51.166Z,86.20
2022-10-28T00:07:20.370Z,86.01
2022-10-28T00:09:50.598Z,86.02
2022-10-28T00:12:19.822Z,86.32
2022-10-28T00:14:49.165Z,86.21
2022-10-28T00:17:18.477Z,86.21
2022-10-28T00:19:47.819Z,86.38
2022-10-28T00:22:17.080Z,86.29
2022-10-28T00:24:46.601Z,86.20
2022-10-28T00:27:15.973Z,86.44
2022-10-28T00:29:45.315Z,86.41
2022-10-28T00:32:14.789Z,86.49
2022-10-28T00:34:44.172Z,86.56
2022-10-28T00:37:13.600Z,86.67
2022-10-28T00:39:42.887Z,86.70
2022-10-28T00:42:12.715Z,86.72
2022-10-28T00:44:51.132Z,86.72
2022-10-28T00:47:29.438Z,86.69
2022-10-28T00:50:07.523Z,86.76
2022-10-28T00:52:37.122Z,86.86
2022-10-28T00:55:06.914Z,87.09
2022-10-28T00:57:38.207Z,86.84
2022-10-28T01:00:08.985Z,87.15
2022-10-28T01:02:41.591Z,87.11
2022-10-28T01:05:10.704Z,87.46
2022-10-28T01:07:39.898Z,87.09
2022-10-28T01:10:09.868Z,87.38
2022-10-28T01:12:42.526Z,87.91
2022-10-28T01:15:29.644Z,87.70
2022-10-28T01:18:11.535Z,87.47
2022-10-28T01:20:56.246Z,87.32
2022-10-28T01:23:31.647Z,87.51
2022-10-28T01:26:22.000Z,87.58
2022-10-28T01:29:09.810Z,87.90
2022-10-28T01:32:00.058Z,87.84
2022-10-28T01:34:35.320Z,87.98
2022-10-28T01:37:13.414Z,87.62
2022-10-28T01:39:51.523Z,87.69
2022-10-28T01:42:30.031Z,87.69
2022-10-28T01:45:22.916Z,87.80
2022-10-28T01:47:58.207Z,87.75
2022-10-28T01:50:39.851Z,87.62
2022-10-28T01:53:18.086Z,87.65
2022-10-28T01:55:50.185Z,87.20
2022-10-28T01:58:21.991Z,86.90
2022-10-28T02:00:51.969Z,86.93
2022-10-28T02:03:21.245Z,86.87
2022-10-28T02:05:56.339Z,86.84
2022-10-28T02:08:28.712Z,86.79
2022-10-28T02:11:17.917Z,86.78
2022-10-28T02:13:56.643Z,86.78
2022-10-28T02:16:51.012Z,86.88
2022-10-28T02:19:23.455Z,87.15
2022-10-28T02:22:01.480Z,87.15
2022-10-28T02:24:43.028Z,87.05
2022-10-28T02:27:39.597Z,86.94
2022-10-28T02:30:12.212Z,86.76
2022-10-28T02:32:41.680Z,86.63
2022-10-28T02:35:14.012Z,86.45
2022-10-28T02:37:46.211Z,86.46
2022-10-28T02:40:18.594Z,86.21
2022-10-28T02:42:54.015Z,86.23
2022-10-28T02:45:35.268Z,86.12
2022-10-28T02:48:23.205Z,86.13
2022-10-28T02:50:54.846Z,85.93
2022-10-28T02:53:30.249Z,86.08
2022-10-28T02:56:01.308Z,86.21
2022-10-28T02:58:31.076Z,85.60
2022-10-28T03:01:00.339Z,85.58
2022-10-28T03:03:29.676Z,85.40
2022-10-28T03:05:59.677Z,85.66
2022-10-28T03:08:29.080Z,85.59
2022-10-28T03:10:58.288Z,85.79
2022-10-28T03:13:27.527Z,85.65
2022-10-28T03:15:56.798Z,85.70
2022-10-28T03:18:26.294Z,85.22
2022-10-28T03:20:58.149Z,85.38
2022-10-28T03:23:26.466Z,84.95
2022-10-28T03:25:55.716Z,84.59
2022-10-28T03:28:25.041Z,83.99
2022-10-28T03:30:54.280Z,83.37
2022-10-28T03:33:23.689Z,83.51
2022-10-28T03:35:52.924Z,83.19
2022-10-28T03:38:22.148Z,83.08
2022-10-28T03:40:52.404Z,83.08
2022-10-28T03:43:21.780Z,83.19
2022-10-28T03:45:51.087Z,83.17
2022-10-28T03:48:20.408Z,82.78
2022-10-28T03:50:54.471Z,82.60
2022-10-28T03:53:27.553Z,82.48
2022-10-28T03:55:56.914Z,82.66
2022-10-28T03:58:26.739Z,82.77
2022-10-28T04:00:57.017Z,82.91
2022-10-28T04:03:26.871Z,82.80
2022-10-28T04:05:56.112Z,82.65
2022-10-28T04:08:25.414Z,82.73
2022-10-28T04:10:54.633Z,82.64
2022-10-28T04:13:23.892Z,82.69
2022-10-28T04:15:53.104Z,82.82
2022-10-28T04:18:22.523Z,82.69
2022-10-28T04:20:51.740Z,82.71
2022-10-28T04:23:21.129Z,82.63
2022-10-28T04:25:55.046Z,82.74
2022-10-28T04:28:27.945Z,82.87
2022-10-28T04:30:57.160Z,82.85
2022-10-28T04:33:26.654Z,82.45
2022-10-28T04:35:56.018Z,82.41
2022-10-28T04:38:25.785Z,82.48
2022-10-28T04:40:55.191Z,82.91
2022-10-28T04:43:24.637Z,82.80
2022-10-28T04:45:53.925Z,83.00
2022-10-28T04:48:23.359Z,82.89
2022-10-28T04:50:53.338Z,82.77
2022-10-28T04:53:22.562Z,82.40
2022-10-28T04:55:51.786Z,81.95
2022-10-28T04:58:21.043Z,81.94
2022-10-28T05:00:50.243Z,81.65
2022-10-28T05:03:19.557Z,81.79
2022-10-28T05:05:49.149Z,81.97
2022-10-28T05:08:18.490Z,81.57
2022-10-28T05:10:49.717Z,81.69
2022-10-28T05:13:19.813Z,81.79
2022-10-28T05:15:50.209Z,81.74
2022-10-28T05:18:19.812Z,81.78
2022-10-28T05:20:50.818Z,81.91
2022-10-28T05:23:20.303Z,81.86
2022-10-28T05:25:50.359Z,81.74
2022-10-28T05:28:21.738Z,81.72
2022-10-28T05:30:51.115Z,81.70
2022-10-28T05:33:20.509Z,81.64
2022-10-28T05:35:50.212Z,81.48
2022-10-28T05:38:19.590Z,81.49
2022-10-28T05:40:48.792Z,81.48
2022-10-28T05:43:18.123Z,81.52
2022-10-28T05:45:55.130Z,81.51
2022-10-28T05:48:24.863Z,81.33
2022-10-28T05:50:54.064Z,81.14
2022-10-28T05:53:23.615Z,80.94
2022-10-28T05:55:52.848Z,81.09
2022-10-28T05:58:22.088Z,81.36
2022-10-28T06:00:51.306Z,81.13
2022-10-28T06:03:20.737Z,80.92
2022-10-28T06:05:50.034Z,80.73
2022-10-28T06:08:19.535Z,80.85
2022-10-28T06:10:54.879Z,80.58
2022-10-28T06:13:24.648Z,80.97
2022-10-28T06:15:55.229Z,80.95
2022-10-28T06:18:24.791Z,81.12
2022-10-28T06:20:56.146Z,81.12
2022-10-28T06:23:27.577Z,80.95
2022-10-28T06:25:59.204Z,81.01
2022-10-28T06:28:29.201Z,80.97
2022-10-28T06:31:03.891Z,81.15
2022-10-28T06:33:33.550Z,80.98
2022-10-28T06:36:03.389Z,80.91
2022-10-28T06:38:32.603Z,80.35
2022-10-28T06:41:01.953Z,80.44
2022-10-28T06:43:31.195Z,80.53
2022-10-28T06:46:04.368Z,80.36
2022-10-28T06:48:35.286Z,80.28
2022-10-28T06:51:04.900Z,81.02
2022-10-28T06:53:34.133Z,80.74
2022-10-28T06:56:03.792Z,80.89
2022-10-28T06:58:33.010Z,80.85
2022-10-28T07:01:06.451Z,80.61
2022-10-28T07:03:35.957Z,80.62
2022-10-28T07:06:06.307Z,80.57
2022-10-28T07:08:35.639Z,80.50
2022-10-28T07:11:05.319Z,80.49
2022-10-28T07:13:34.720Z,80.42
2022-10-28T07:16:05.257Z,80.62
2022-10-28T07:18:34.552Z,80.81
2022-10-28T07:21:04.013Z,80.10
2022-10-28T07:23:34.407Z,79.82
2022-10-28T07:26:04.105Z,79.57
2022-10-28T07:28:33.576Z,79.44
2022-10-28T07:31:03.697Z,79.26
2022-10-28T07:33:33.048Z,79.39
2022-10-28T07:36:04.924Z,79.00
2022-10-28T07:38:34.817Z,78.65
2022-10-28T07:41:08.039Z,78.48
2022-10-28T07:43:38.935Z,78.24
2022-10-28T07:46:09.255Z,78.21
2022-10-28T07:48:39.226Z,77.43
2022-10-28T07:51:09.926Z,77.24
2022-10-28T07:53:39.137Z,77.65
2022-10-28T07:56:10.328Z,77.53
2022-10-28T07:58:39.603Z,77.15
2022-10-28T08:01:10.392Z,76.96
2022-10-28T08:03:39.891Z,77.04
2022-10-28T08:06:16.934Z,76.43
2022-10-28T08:08:48.104Z,77.00
2022-10-28T08:11:23.396Z,76.31
2022-10-28T08:13:53.897Z,76.28
2022-10-28T08:16:23.305Z,75.82
2022-10-28T08:18:53.305Z,75.96
2022-10-28T08:21:22.611Z,75.49
2022-10-28T08:23:52.004Z,75.23
2022-10-28T08:26:21.604Z,74.99
2022-10-28T08:28:51.036Z,74.67
2022-10-28T08:31:20.537Z,74.26
2022-10-28T08:33:49.915Z,73.60
2022-10-28T08:36:19.412Z,73.47
2022-10-28T08:38:48.941Z,73.44
2022-10-28T08:41:42.043Z,72.93
2022-10-28T08:44:23.392Z,72.83
2022-10-28T08:47:16.478Z,72.38
2022-10-28T08:49:49.360Z,72.89
2022-10-28T08:52:34.099Z,72.42
2022-10-28T08:55:18.364Z,73.14
2022-10-28T08:57:50.922Z,72.29
2022-10-28T09:00:21.066Z,72.44
2022-10-28T09:03:14.871Z,72.57
2022-10-28T09:05:47.900Z,72.70
2022-10-28T09:08:32.493Z,72.62
2022-10-28T09:11:10.764Z,72.72
2022-10-28T09:13:49.444Z,72.01
2022-10-28T09:16:47.895Z,70.05
2022-10-28T09:19:29.144Z,69.62
2022-10-28T09:22:07.379Z,69.78
2022-10-28T09:24:48.870Z,69.88
2022-10-28T09:27:24.083Z,70.82
2022-10-28T09:30:19.807Z,69.60
2022-10-28T09:32:55.785Z,68.72
2022-10-28T09:35:27.972Z,65.79
2022-10-28T09:38:09.226Z,63.92
2022-10-28T09:40:41.104Z,65.03
2022-10-28T09:43:35.399Z,64.84
2022-10-28T09:46:10.733Z,63.77
2022-10-28T09:48:42.348Z,64.19
2022-10-28T09:51:14.791Z,61.55
2022-10-28T09:53:47.986Z,62.17
2022-10-28T09:56:17.192Z,60.23
2022-10-28T09:58:47.723Z,59.94
2022-10-28T10:01:18.825Z,58.44
2022-10-28T10:03:52.060Z,59.48
2022-10-28T10:06:38.379Z,60.40
2022-10-28T10:09:09.474Z,59.23
2022-10-28T10:11:46.267Z,58.12
2022-10-28T10:14:24.850Z,59.05
2022-10-28T10:17:02.086Z,58.89
2022-10-28T10:19:51.151Z,57.35
2022-10-28T10:22:31.383Z,58.44
2022-10-28T10:25:00.802Z,57.29
2022-10-28T10:27:32.071Z,57.46
2022-10-28T10:30:01.838Z,57.76
2022-10-28T10:32:32.858Z,57.93
2022-10-28T10:35:09.245Z,57.76
2022-10-28T10:37:41.863Z,57.16
2022-10-28T10:40:31.327Z,58.30
2022-10-28T10:43:24.554Z,59.35
2022-10-28T10:46:08.938Z,59.17
2022-10-28T10:48:38.611Z,60.76
2022-10-28T10:51:10.514Z,62.21
2022-10-28T10:53:41.661Z,62.53
2022-10-28T10:56:13.801Z,62.52
2022-10-28T10:58:49.298Z,63.03
2022-10-28T11:01:24.162Z,63.32
2022-10-28T11:03:59.113Z,63.80
2022-10-28T11:06:34.243Z,63.27
2022-10-28T11:09:05.958Z,63.35
2022-10-28T11:11:40.675Z,63.31
2022-10-28T11:14:15.830Z,63.12
2022-10-28T11:16:50.921Z,62.12
2022-10-28T11:19:29.182Z,61.73
2022-10-28T11:22:24.450Z,61.62
2022-10-28T11:25:24.674Z,62.51
2022-10-28T11:28:24.465Z,62.51
2022-10-28T11:31:02.975Z,62.16
2022-10-28T11:33:39.143Z,62.79
2022-10-28T11:36:37.015Z,62.97
2022-10-28T11:39:09.574Z,63.51
2022-10-28T11:41:51.924Z,63.43
2022-10-28T11:44:44.005Z,64.13
2022-10-28T11:47:34.491Z,64.19
2022-10-28T11:50:13.255Z,64.43
2022-10-28T11:52:45.929Z,65.18
2022-10-28T11:55:24.106Z,64.14
2022-10-28T12:00:48.827Z,64.25
2022-10-28T12:03:33.349Z,63.82
2022-10-28T12:06:08.444Z,63.64
2022-10-28T12:11:40.323Z,64.05
2022-10-28T12:14:13.600Z,64.41
2022-10-28T12:16:45.477Z,64.48
2022-10-28T12:19:18.097Z,64.33
2022-10-28T12:21:51.207Z,64.17
2022-10-28T12:24:22.396Z,64.45
2022-10-28T12:27:03.519Z,64.32
2022-10-28T12:29:38.408Z,63.86
2022-10-28T12:32:10.969Z,64.70
2022-10-28T12:34:41.237Z,64.05
2022-10-28T12:37:35.083Z,64.72
2022-10-28T12:40:33.126Z,64.35
2022-10-28T12:43:08.553Z,64.28
2022-10-28T12:45:39.431Z,64.55
2022-10-28T12:48:17.653Z,64.57
2022-10-28T12:50:54.928Z,64.66
2022-10-28T12:53:33.238Z,65.09
2022-10-28T12:56:03.858Z,65.39
2022-10-28T12:58:48.080Z,65.07
2022-10-28T13:01:19.294Z,64.62
2022-10-28T13:03:50.661Z,65.32
2022-10-28T13:06:42.653Z,64.79
2022-10-28T13:09:39.689Z,63.81
2022-10-28T13:12:15.135Z,64.98
2022-10-28T13:17:54.334Z,63.66
2022-10-28T13:20:26.986Z,62.25
2022-10-28T13:22:57.323Z,62.63
2022-10-28T13:25:55.794Z,62.86
2022-10-28T13:28:30.711Z,62.99
2022-10-28T13:31:07.849Z,62.71
2022-10-28T13:33:39.292Z,63.35
2022-10-28T13:36:23.829Z,63.59
2022-10-28T13:38:59.877Z,63.17
2022-10-28T13:41:43.324Z,63.40
2022-10-28T13:44:17.705Z,64.18
2022-10-28T13:47:07.753Z,64.17
2022-10-28T13:49:38.462Z,64.16
2022-10-28T13:52:13.781Z,64.61
2022-10-28T13:54:49.548Z,64.89
2022-10-28T13:57:29.696Z,64.79
2022-10-28T14:00:04.802Z,64.92
2022-10-28T14:02:44.300Z,65.24
2022-10-28T14:05:18.617Z,64.82
2022-10-28T14:07:58.785Z,65.26
2022-10-28T14:10:30.520Z,64.84
2022-10-28T14:13:20.441Z,65.77
2022-10-28T14:15:50.882Z,65.94
2022-10-28T14:20:59.130Z,66.07
2022-10-28T14:23:31.934Z,66.26
2022-10-28T14:26:04.625Z,66.31
2022-10-28T14:28:38.197Z,66.12
2022-10-28T14:31:14.564Z,66.48
2022-10-28T14:33:46.298Z,66.66
2022-10-28T14:36:21.240Z,67.26
2022-10-28T14:42:27.058Z,67.13
2022-10-28T14:45:02.522Z,67.81
2022-10-28T14:47:46.786Z,68.04
2022-10-28T14:50:18.319Z,67.43
2022-10-28T14:52:48.842Z,67.77
2022-10-28T14:55:24.130Z,67.68
2022-10-28T14:57:53.929Z,68.19
2022-10-28T15:00:29.441Z,68.28
2022-10-28T15:02:58.777Z,67.82
2022-10-28T15:05:32.420Z,68.07
2022-10-28T15:08:04.489Z,68.96
2022-10-28T15:10:34.963Z,68.59
2022-10-28T15:13:04.777Z,69.64
2022-10-28T15:15:35.310Z,69.83
2022-10-28T15:18:07.671Z,69.71
2022-10-28T15:20:37.484Z,70.01
2022-10-28T15:23:18.357Z,70.29
2022-10-28T15:25:47.872Z,70.19
2022-10-28T15:28:17.144Z,70.50
2022-10-28T15:30:47.037Z,70.55
2022-10-28T15:33:21.593Z,71.01
2022-10-28T15:35:51.400Z,71.65
2022-10-28T15:38:32.909Z,71.32
2022-10-28T15:41:02.507Z,71.90
2022-10-28T15:43:32.540Z,72.19
2022-10-28T15:46:12.411Z,72.62
2022-10-28T15:48:41.692Z,72.62
2022-10-28T15:51:16.172Z,72.66
2022-10-28T15:53:46.599Z,73.54
2022-10-28T15:56:31.386Z,73.20
2022-10-28T15:59:20.060Z,72.94
2022-10-28T16:01:49.501Z,73.32
2022-10-28T16:04:27.920Z,73.87
2022-10-28T16:06:58.174Z,73.89
2022-10-28T16:09:38.137Z,74.07
2022-10-28T16:12:18.875Z,74.29
2022-10-28T16:14:59.811Z,74.28
2022-10-28T16:17:34.441Z,74.61
2022-10-28T16:20:18.367Z,74.65
2022-10-28T16:22:46.764Z,74.52
2022-10-28T16:25:20.064Z,74.71
2022-10-28T16:27:50.752Z,74.22
2022-10-28T16:30:20.021Z,74.05
2022-10-28T16:32:50.399Z,74.00
2022-10-28T16:35:22.468Z,74.58
2022-10-28T16:37:55.542Z,74.24
2022-10-28T16:40:49.744Z,74.33
2022-10-28T16:42:55.487Z,74.66
2022-10-28T16:45:25.053Z,74.53
2022-10-28T16:47:54.814Z,75.12
2022-10-28T16:50:24.291Z,74.98
2022-10-28T16:52:55.435Z,75.55
2022-10-28T16:55:24.671Z,75.79
2022-10-28T16:57:54.462Z,76.09
2022-10-28T17:00:23.912Z,76.31
2022-10-28T17:02:54.045Z,76.99
2022-10-28T17:05:24.570Z,76.91
2022-10-28T17:07:58.161Z,77.50
2022-10-28T17:10:27.933Z,77.52
2022-10-28T17:12:57.767Z,77.26
2022-10-28T17:15:27.419Z,77.05
2022-10-28T17:17:57.937Z,77.04
2022-10-28T17:20:27.540Z,76.79
2022-10-28T17:22:58.142Z,77.46
2022-10-28T17:25:28.031Z,77.35
2022-10-28T17:27:57.979Z,77.84
2022-10-28T17:30:27.715Z,78.30
2022-10-28T17:32:57.174Z,78.75
2022-10-28T17:35:27.274Z,79.12
2022-10-28T17:37:57.331Z,79.74
2022-10-28T17:40:27.056Z,79.92
2022-10-28T17:42:58.563Z,80.45
2022-10-28T17:45:28.120Z,80.52
2022-10-28T17:47:57.410Z,80.50
2022-10-28T17:50:26.722Z,80.85
2022-10-28T17:52:56.507Z,81.03
2022-10-28T17:55:26.240Z,81.37
2022-10-28T17:57:55.887Z,81.71
2022-10-28T18:00:26.064Z,81.79
2022-10-28T18:02:58.488Z,81.74
2022-10-28T18:05:27.914Z,81.87
2022-10-28T18:07:57.470Z,81.86
2022-10-28T18:10:27.127Z,82.06
2022-10-28T18:12:56.825Z,82.10
2022-10-28T18:15:26.636Z,82.28
2022-10-28T18:17:55.937Z,82.28
2022-10-28T18:20:25.203Z,82.20
2022-10-28T18:22:54.878Z,82.49
2022-10-28T18:25:24.409Z,82.32
2022-10-28T18:27:53.634Z,82.36
2022-10-28T18:30:23.159Z,81.57
2022-10-28T18:32:52.952Z,81.66
2022-10-28T18:35:22.793Z,81.69
2022-10-28T18:37:52.292Z,81.72
2022-10-28T18:40:21.858Z,81.67
2022-10-28T18:42:51.054Z,82.09
2022-10-28T18:45:20.399Z,82.09
2022-10-28T18:47:50.286Z,82.33
2022-10-28T18:50:19.811Z,82.18
2022-10-28T18:52:49.053Z,82.59
2022-10-28T18:55:18.534Z,82.82
2022-10-28T18:57:50.567Z,82.76
2022-10-28T19:00:20.747Z,83.13
2022-10-28T19:02:50.675Z,83.26
2022-10-28T19:05:20.846Z,83.23
2022-10-28T19:07:50.074Z,83.05
2022-10-28T19:10:19.403Z,83.10
2022-10-28T19:12:52.052Z,83.04
2022-10-28T19:15:19.824Z,82.98
2022-10-28T19:17:49.177Z,83.31
2022-10-28T19:23:04.338Z,83.76
2022-10-28T19:25:33.603Z,83.75
2022-10-28T19:28:03.022Z,83.80
2022-10-28T19:30:32.269Z,83.50
2022-10-28T19:33:01.656Z,83.52
2022-10-28T19:35:32.631Z,83.82
2022-10-28T19:38:01.960Z,83.93
2022-10-28T19:40:31.441Z,83.91
2022-10-28T19:43:00.769Z,83.53
2022-10-28T19:45:30.132Z,83.62
2022-10-28T19:48:03.368Z,83.71
2022-10-28T19:50:32.722Z,83.78
2022-10-28T19:53:02.141Z,83.77
2022-10-28T19:55:31.417Z,83.87
2022-10-28T19:58:00.657Z,83.90
2022-10-28T20:00:29.884Z,83.95
2022-10-28T20:02:59.307Z,84.22
2022-10-28T20:05:28.708Z,84.44
2022-10-28T20:07:58.002Z,84.35
2022-10-28T20:10:27.216Z,84.69
2022-10-28T20:12:56.763Z,84.60
2022-10-28T20:15:26.341Z,85.15
2022-10-28T20:17:56.013Z,85.14
2022-10-28T20:20:25.411Z,85.50
2022-10-28T20:22:55.228Z,85.36
2022-10-28T20:25:25.113Z,85.75
2022-10-28T20:27:54.992Z,85.91
2022-10-28T20:30:24.836Z,86.16
2022-10-28T20:32:55.826Z,86.49
2022-10-28T20:35:25.505Z,86.59
2022-10-28T20:37:58.109Z,86.54
2022-10-28T20:40:27.744Z,86.54
2022-10-28T20:42:57.575Z,86.75
2022-10-28T20:45:27.133Z,86.66
2022-10-28T20:47:56.693Z,86.69
2022-10-28T20:50:25.960Z,87.34
2022-10-28T20:52:55.663Z,87.04
2022-10-28T20:55:25.355Z,86.99
2022-10-28T20:57:54.688Z,87.11
2022-10-28T21:00:24.261Z,87.45
2022-10-28T21:02:55.802Z,87.78
2022-10-28T21:05:25.632Z,87.84
2022-10-28T21:07:55.437Z,87.80
2022-10-28T21:10:24.957Z,87.78
2022-10-28T21:12:54.254Z,87.60
2022-10-28T21:15:23.603Z,87.07
2022-10-28T21:17:53.533Z,87.30
2022-10-28T21:20:23.761Z,87.30
2022-10-28T21:22:53.422Z,87.43
2022-10-28T21:25:24.790Z,87.27
2022-10-28T21:27:54.245Z,87.54
2022-10-28T21:30:23.764Z,88.07
2022-10-28T21:32:53.547Z,87.90
2022-10-28T21:35:23.135Z,88.48
2022-10-28T21:37:52.961Z,88.27
2022-10-28T21:40:22.432Z,88.34
2022-10-28T21:42:51.893Z,88.46
2022-10-28T21:45:21.233Z,88.51
2022-10-28T21:47:50.935Z,88.62
2022-10-28T21:50:20.316Z,88.83
2022-10-28T21:52:49.762Z,88.85
2022-10-28T21:55:26.685Z,88.53
2022-10-28T21:57:50.045Z,88.62
2022-10-28T22:00:20.551Z,88.43
2022-10-28T22:02:49.869Z,88.49
2022-10-28T22:05:19.300Z,88.07
2022-10-28T22:07:48.518Z,88.85
2022-10-28T22:10:17.836Z,88.73
2022-10-28T22:12:47.081Z,88.92
2022-10-28T22:15:17.122Z,89.67
2022-10-28T22:17:46.384Z,89.59
2022-10-28T22:20:15.860Z,89.68
2022-10-28T22:22:45.267Z,89.64
2022-10-28T22:25:14.894Z,89.15
2022-10-28T22:27:44.982Z,89.12
2022-10-28T22:30:15.232Z,89.28
2022-10-28T22:32:44.443Z,89.28
2022-10-28T22:35:13.749Z,89.01
2022-10-28T22:37:43.044Z,88.57
2022-10-28T22:40:12.582Z,87.85
2022-10-28T22:42:41.808Z,88.10
2022-10-28T22:45:11.305Z,88.23
2022-10-28T22:47:40.760Z,88.28
2022-10-28T22:50:10.619Z,88.41
2022-10-28T22:52:40.081Z,88.86
2022-10-28T22:55:09.773Z,88.79
2022-10-28T22:57:39.162Z,88.93
2022-10-28T23:00:09.699Z,89.08
2022-10-28T23:02:39.317Z,88.74
2022-10-28T23:05:09.404Z,88.69
2022-10-28T23:07:38.653Z,88.64
2022-10-28T23:10:08.611Z,88.59
2022-10-28T23:12:37.872Z,88.90
2022-10-28T23:15:08.146Z,88.91
2022-10-28T23:17:37.369Z,88.87
2022-10-28T23:20:07.424Z,88.73
2022-10-28T23:22:36.654Z,88.78
2022-10-28T23:25:06.463Z,88.70
2022-10-28T23:27:35.683Z,88.42
2022-10-28T23:30:05.667Z,88.43
2022-10-28T23:32:34.924Z,88.48
2022-10-28T23:35:04.867Z,88.28
2022-10-28T23:37:34.352Z,88.32
2022-10-28T23:40:03.737Z,88.16
2022-10-28T23:42:33.061Z,88.35
2022-10-28T23:45:02.631Z,88.32
2022-10-28T23:47:31.876Z,88.09
2022-10-28T23:50:01.241Z,87.65
2022-10-28T23:52:30.482Z,87.89
2022-10-28T23:54:59.723Z,88.09
2022-10-28T23:57:28.949Z,88.63
2022-10-28T23:59:58.324Z,89.53
